Aérodrome :
LOGIN :

S'inscrire | Disclaimer

   EN    FR    IT 

 










Légende :    VFR   VFR Marginal   IFR   IFR Intensif   IFR Très Intensif
Visi : 
Plafond : 
>= 8 km
>= 3000ft
5 à 8 km
1000 à 3000 ft
1500m à 5 km
500 à 1000 ft
800 à 1500m
200 à 500 ft
< 800m
< 200 ft
Symboles :   Orages  Brouillard  Fortes neiges  Fortes précipitations  Vent > 20 kt
SIGMETs :   Divers  Orages  Givrage  Turbulence  Onde Orograph.  Cendres Volcan.






- Altitude de l'aérodrome : 741 ft
- Code IATA : PED


LKPD - Pardubice AB

DERNIER METAR :
  • 280830Z 30012KT 9999 SCT015 BKN025 BKN120 03/M01 Q1012 NOSIG RMK BLU BLU

METARs EXPIRÉS :
  • 280800Z 29011KT 9999 SCT015 BKN025 BKN040 02/M01 Q1012 NOSIG RMK BLU BLU
  • 280730Z 29010KT 9999 FEW017 SCT090 BKN130 02/M01 Q1011 NOSIG RMK BLU BLU
  • 280630Z 29011KT 9999 SCT012 BKN020 OVC050 02/M01 Q1009 NOSIG RMK WHT WHT
  • 280600Z 29011KT 9999 -RA BKN017 OVC050 02/M00 Q1008 NOSIG RMK WHT WHT

TAF TAF LKPD
Valide du 28 à 06h jusqu'au 29 à 06h UTC


280500Z 2806/2906 30012KT 9999 BKN030
TEMPO 2806/2815 30016G28KT 7000 SHRASN BKN020
BECMG 2816/2818 28008KT CAVOK
BECMG 2900/2902 16006KT



MET'MAP, la Météo Aéronautique d'un coup d'oeil ! - Copyright ORBIFLY Décembre 2007 - Disclaimer

ORBIFLY MET'MAP TEAM :

Programmation & Développement : Alexandra Zaïnal
Sur une idée originale de : Baudouin d'Aumeries
Assistance à la programmation : Marc-Olivier Méhu
Soutien technique & logistique : Manuel Goepfert

Contact : metmap@orbifly.com




SOURCES & CREDITS :

   NOAA